地図

経路データ

SID SEASON NUMBER BASIN SUBBASIN NAME ISO_TIME NATURE LAT LON WMO_WIND WMO_PRES WMO_AGENCY TRACK_TYPE DIST2LAND LANDFALL IFLAG USA_AGENCY USA_ATCF_ID USA_LAT USA_LON USA_RECORD USA_STATUS USA_WIND USA_PRES USA_SSHS USA_R34_NE USA_R34_SE USA_R34_SW USA_R34_NW USA_R50_NE USA_R50_SE USA_R50_SW USA_R50_NW USA_R64_NE USA_R64_SE USA_R64_SW USA_R64_NW USA_POCI USA_ROCI USA_RMW USA_EYE TOKYO_LAT TOKYO_LON TOKYO_GRADE TOKYO_WIND TOKYO_PRES TOKYO_R50_DIR TOKYO_R50_LONG TOKYO_R50_SHORT TOKYO_R30_DIR TOKYO_R30_LONG TOKYO_R30_SHORT TOKYO_LAND CMA_LAT CMA_LON CMA_CAT CMA_WIND CMA_PRES HKO_LAT HKO_LON HKO_CAT HKO_WIND HKO_PRES NEWDELHI_LAT NEWDELHI_LON NEWDELHI_GRADE NEWDELHI_WIND NEWDELHI_PRES NEWDELHI_CI NEWDELHI_DP NEWDELHI_POCI REUNION_LAT REUNION_LON REUNION_TYPE REUNION_WIND REUNION_PRES REUNION_TNUM REUNION_CI REUNION_RMW REUNION_R34_NE REUNION_R34_SE REUNION_R34_SW REUNION_R34_NW REUNION_R50_NE REUNION_R50_SE REUNION_R50_SW REUNION_R50_NW REUNION_R64_NE REUNION_R64_SE REUNION_R64_SW REUNION_R64_NW BOM_LAT BOM_LON BOM_TYPE BOM_WIND BOM_PRES BOM_TNUM BOM_CI BOM_RMW BOM_R34_NE BOM_R34_SE BOM_R34_SW BOM_R34_NW BOM_R50_NE BOM_R50_SE BOM_R50_SW BOM_R50_NW BOM_R64_NE BOM_R64_SE BOM_R64_SW BOM_R64_NW BOM_ROCI BOM_POCI BOM_EYE BOM_POS_METHOD BOM_PRES_METHOD NADI_LAT NADI_LON NADI_CAT NADI_WIND NADI_PRES WELLINGTON_LAT WELLINGTON_LON WELLINGTON_WIND WELLINGTON_PRES DS824_LAT DS824_LON DS824_STAGE DS824_WIND DS824_PRES TD9636_LAT TD9636_LON TD9636_STAGE TD9636_WIND TD9636_PRES TD9635_LAT TD9635_LON TD9635_WIND TD9635_PRES TD9635_ROCI NEUMANN_LAT NEUMANN_LON NEUMANN_CLASS NEUMANN_WIND NEUMANN_PRES MLC_LAT MLC_LON MLC_CLASS MLC_WIND MLC_PRES USA_GUST BOM_GUST BOM_GUST_PER REUNION_GUST REUNION_GUST_PER USA_SEAHGT USA_SEARAD_NE USA_SEARAD_SE USA_SEARAD_SW USA_SEARAD_NW STORM_SPEED STORM_DIR
1857039S15066 1857 4 SI MM NOT_NAMED 1857-02-07 18:00:00 NR -15.0000 66.0000 main 1048 1024 __________O___ -1 -15.0000 66.0000 7 5 234
1857039S15066 1857 4 SI MM NOT_NAMED 1857-02-07 21:00:00 NR -15.1579 65.7704 main 1018 985 __________P___ -1 -15.1579 65.7704 7 6 234
1857039S15066 1857 4 SI MM NOT_NAMED 1857-02-08 00:00:00 NR -15.3225 65.5326 main 985 954 __________P___ -1 -15.3225 65.5326 7 6 234
1857039S15066 1857 4 SI MM NOT_NAMED 1857-02-08 03:00:00 NR -15.5009 65.2785 main 954 915 __________P___ -1 -15.5009 65.2785 7 6 234
1857039S15066 1857 4 SI MM NOT_NAMED 1857-02-08 06:00:00 NR -15.7000 65.0000 main 915 876 __________O___ -1 -15.7000 65.0000 7 7 233
1857039S15066 1857 4 SI MM NOT_NAMED 1857-02-08 09:00:00 NR -15.9244 64.6925 main 876 831 __________P___ -1 -15.9244 64.6925 7 8 232
1857039S15066 1857 4 SI MM NOT_NAMED 1857-02-08 12:00:00 NR -16.1701 64.3650 main 831 783 __________P___ -1 -16.1701 64.3650 7 8 232
1857039S15066 1857 4 SI MM NOT_NAMED 1857-02-08 15:00:00 NR -16.4307 64.0299 main 783 738 __________P___ -1 -16.4307 64.0299 7 8 230
1857039S15066 1857 4 SI MM NOT_NAMED 1857-02-08 18:00:00 NR -16.7000 63.7000 main 738 693 __________O___ -1 -16.7000 63.7000 7 8 229
1857039S15066 1857 4 SI MM NOT_NAMED 1857-02-08 21:00:00 NR -16.9717 63.3886 main 693 654 __________P___ -1 -16.9717 63.3886 7 8 227
1857039S15066 1857 4 SI MM NOT_NAMED 1857-02-09 00:00:00 NR -17.2498 63.0848 main 654 610 __________P___ -1 -17.2498 63.0848 7 8 226
1857039S15066 1857 4 SI MM NOT_NAMED 1857-02-09 03:00:00 NR -17.5280 62.7886 main 610 566 __________P___ -1 -17.5280 62.7886 7 8 225
1857039S15066 1857 4 SI MM NOT_NAMED 1857-02-09 06:00:00 NR -17.8000 62.5000 main 566 528 __________O___ -1 -17.8000 62.5000 7 8 226
1857039S15066 1857 4 SI MM NOT_NAMED 1857-02-09 09:00:00 NR -18.0611 62.2135 main 523 484 __________P___ -1 -18.0611 62.2135 7 7 226
1857039S15066 1857 4 SI MM NOT_NAMED 1857-02-09 12:00:00 NR -18.3148 61.9347 main 484 455 __________P___ -1 -18.3148 61.9347 7 7 226
1857039S15066 1857 4 SI MM NOT_NAMED 1857-02-09 15:00:00 NR -18.5611 61.6635 main 450 412 __________P___ -1 -18.5611 61.6635 7 7 226
1857039S15066 1857 4 SI MM NOT_NAMED 1857-02-09 18:00:00 NR -18.8000 61.4000 main 412 384 __________O___ -1 -18.8000 61.4000 7 7 226
1857039S15066 1857 4 SI MM NOT_NAMED 1857-02-09 21:00:00 NR -19.0317 61.1437 main 374 346 __________P___ -1 -19.0317 61.1437 7 7 226
1857039S15066 1857 4 SI MM NOT_NAMED 1857-02-10 00:00:00 NR -19.2578 60.8930 main 343 316 __________P___ -1 -19.2578 60.8930 7 7 226
1857039S15066 1857 4 SI MM NOT_NAMED 1857-02-10 03:00:00 NR -19.4799 60.6458 main 306 279 __________P___ -1 -19.4799 60.6458 7 6 226
1857039S15066 1857 4 SI MM NOT_NAMED 1857-02-10 06:00:00 NR -19.7000 60.4000 main 279 __________O___ -1 -19.7000 60.4000 7 6 226

IBTrACS Databaseについて

本データベースは、米国NOAAが公開する1842年以降の世界の熱帯低気圧のベストトラックデータアーカイブInternational Best Track Archive for Climate Stewardship (IBTrACS)を、ウェブで閲覧しやすい形式に変換したものです。

最終更新日:2021-10-25